createdAt,value
2023-02-07T00:00:09.538Z,1024.92
2023-02-07T00:00:40.934Z,1024.92
2023-02-07T00:01:12.811Z,1025.02
2023-02-07T00:01:45.006Z,1025.02
2023-02-07T00:02:16.752Z,1024.82
2023-02-07T00:02:48.749Z,1024.82
2023-02-07T00:03:20.895Z,1025.13
2023-02-07T00:03:52.846Z,1025.13
2023-02-07T00:04:24.680Z,1025.13
2023-02-07T00:04:56.633Z,1025.13
2023-02-07T00:05:28.778Z,1025.02
2023-02-07T00:06:00.879Z,1025.02
2023-02-07T00:06:32.550Z,1025.13
2023-02-07T00:07:04.511Z,1025.13
2023-02-07T00:07:36.490Z,1025.02
2023-02-07T00:08:08.588Z,1025.23
2023-02-07T00:08:40.594Z,1025.23
2023-02-07T00:09:12.408Z,1025.02
2023-02-07T00:09:44.469Z,1025.02
2023-02-07T00:10:16.587Z,1025.02
2023-02-07T00:10:48.268Z,1025.02
2023-02-07T00:11:20.618Z,1024.92
2023-02-07T00:11:52.442Z,1024.92
2023-02-07T00:12:24.423Z,1025.02
2023-02-07T00:12:56.319Z,1025.02
2023-02-07T00:13:28.288Z,1025.13
2023-02-07T00:14:00.359Z,1025.13
2023-02-07T00:14:32.313Z,1025.23
2023-02-07T00:15:04.342Z,1025.23
2023-02-07T00:15:36.597Z,1025.02
2023-02-07T00:16:08.307Z,1025.02
2023-02-07T00:16:40.152Z,1025.02
2023-02-07T00:17:12.272Z,1024.72
2023-02-07T00:17:44.067Z,1024.72
2023-02-07T00:18:16.200Z,1025.23
2023-02-07T00:18:48.104Z,1025.23
2023-02-07T00:19:19.997Z,1025.02
2023-02-07T00:19:52.106Z,1025.02
2023-02-07T00:20:24.135Z,1024.92
2023-02-07T00:20:56.098Z,1024.92
2023-02-07T00:21:28.163Z,1024.92
2023-02-07T00:22:00.030Z,1024.92
2023-02-07T00:22:32.064Z,1024.92
2023-02-07T00:23:03.909Z,1024.92
2023-02-07T00:23:35.921Z,1024.92
2023-02-07T00:24:07.936Z,1025.02
2023-02-07T00:24:40.088Z,1025.02
2023-02-07T00:25:11.949Z,1025.02
2023-02-07T00:25:43.921Z,1025.02
2023-02-07T00:26:15.835Z,1024.92
2023-02-07T00:26:47.771Z,1024.92
2023-02-07T00:27:19.929Z,1024.92
2023-02-07T00:27:51.830Z,1024.92
2023-02-07T00:28:23.811Z,1025.23
2023-02-07T00:28:55.894Z,1025.23
2023-02-07T00:29:27.578Z,1024.92
2023-02-07T00:29:59.514Z,1024.92
2023-02-07T00:30:31.921Z,1025.02
2023-02-07T00:31:03.806Z,1025.02
2023-02-07T00:31:35.671Z,1025.13
2023-02-07T00:32:07.451Z,1025.13
2023-02-07T00:32:39.516Z,1024.92
2023-02-07T00:33:11.628Z,1024.92
2023-02-07T00:33:43.400Z,1024.92
2023-02-07T00:34:15.387Z,1025.02
2023-02-07T00:34:47.386Z,1025.02
2023-02-07T00:35:19.438Z,1024.92
2023-02-07T00:35:51.371Z,1024.92
2023-02-07T00:36:23.641Z,1024.82
2023-02-07T00:36:55.296Z,1024.82
2023-02-07T00:37:27.321Z,1024.92
2023-02-07T00:37:59.320Z,1024.92
2023-02-07T00:38:31.345Z,1025.02
2023-02-07T00:39:03.231Z,1025.02
2023-02-07T00:39:35.244Z,1024.92
2023-02-07T00:40:07.291Z,1024.92
2023-02-07T00:40:39.305Z,1024.92
2023-02-07T00:41:11.525Z,1024.82
2023-02-07T00:41:43.028Z,1024.82
2023-02-07T00:42:15.014Z,1024.92
2023-02-07T00:42:47.215Z,1024.92
2023-02-07T00:43:29.363Z,1024.92
2023-02-07T00:43:51.273Z,1024.92
2023-02-07T00:44:23.005Z,1024.82
2023-02-07T00:44:54.946Z,1024.82
2023-02-07T00:45:27.145Z,1024.82
2023-02-07T00:45:58.873Z,1024.82
2023-02-07T00:46:30.975Z,1024.82
2023-02-07T00:47:02.955Z,1024.82
2023-02-07T00:47:35.052Z,1024.82
2023-02-07T00:48:06.715Z,1024.82
2023-02-07T00:48:38.784Z,1025.02
2023-02-07T00:49:11.013Z,1025.02
2023-02-07T00:49:42.811Z,1025.02
2023-02-07T00:50:14.671Z,1024.82
2023-02-07T00:50:46.653Z,1024.82
2023-02-07T00:51:18.652Z,1024.92
2023-02-07T00:51:50.874Z,1024.92
2023-02-07T00:52:22.606Z,1025.02
2023-02-07T00:52:54.809Z,1025.02
2023-02-07T00:53:26.658Z,1024.82
2023-02-07T00:53:58.480Z,1024.82
2023-02-07T00:54:30.722Z,1024.82
2023-02-07T00:55:02.533Z,1024.82
2023-02-07T00:55:34.575Z,1024.72
2023-02-07T00:56:06.403Z,1024.72
2023-02-07T00:56:38.429Z,1024.72
2023-02-07T00:57:10.587Z,1024.82
2023-02-07T00:57:42.482Z,1024.82
2023-02-07T00:58:14.468Z,1024.92
2023-02-07T00:58:46.432Z,1024.92
2023-02-07T00:59:18.365Z,1024.72
2023-02-07T00:59:50.481Z,1024.72
2023-02-07T01:00:22.493Z,1024.72
2023-02-07T01:00:54.283Z,1024.72
2023-02-07T01:01:26.388Z,1024.72
2023-02-07T01:01:58.326Z,1024.72
2023-02-07T01:02:30.145Z,1024.82
2023-02-07T01:03:02.159Z,1024.82
2023-02-07T01:03:34.308Z,1024.72
2023-02-07T01:04:06.224Z,1024.72
2023-02-07T01:04:38.251Z,1024.92
2023-02-07T01:05:10.199Z,1024.72
2023-02-07T01:05:42.088Z,1024.72
2023-02-07T01:06:13.950Z,1024.82
2023-02-07T01:06:45.994Z,1024.82
2023-02-07T01:07:18.248Z,1024.82
2023-02-07T01:07:50.344Z,1024.82
2023-02-07T01:08:22.400Z,1024.82
2023-02-07T01:08:53.896Z,1024.82
2023-02-07T01:09:25.922Z,1024.82
2023-02-07T01:09:58.130Z,1024.82
2023-02-07T01:10:30.232Z,1024.72
2023-02-07T01:11:03.183Z,1024.72
2023-02-07T01:11:34.521Z,1024.92
2023-02-07T01:12:05.945Z,1024.92
2023-02-07T01:12:44.270Z,1024.92
2023-02-07T01:13:09.702Z,1024.72
2023-02-07T01:13:41.779Z,1024.72
2023-02-07T01:14:14.409Z,1024.82
2023-02-07T01:14:45.582Z,1024.82
2023-02-07T01:15:18.272Z,1024.72
2023-02-07T01:15:49.759Z,1024.72
2023-02-07T01:16:22.953Z,1024.62
2023-02-07T01:16:53.498Z,1024.62
2023-02-07T01:17:26.488Z,1024.72
2023-02-07T01:17:57.587Z,1024.72
2023-02-07T01:18:30.644Z,1024.62
2023-02-07T01:19:01.431Z,1024.62
2023-02-07T01:19:34.468Z,1024.62
2023-02-07T01:20:05.530Z,1024.62
2023-02-07T01:20:39.340Z,1024.72
2023-02-07T01:21:09.345Z,1024.62
2023-02-07T01:21:43.421Z,1024.62
2023-02-07T01:22:13.472Z,1024.62
2023-02-07T01:22:46.921Z,1024.62
2023-02-07T01:23:17.334Z,1024.62
2023-02-07T01:23:50.537Z,1024.62
2023-02-07T01:24:21.433Z,1024.41
2023-02-07T01:24:54.732Z,1024.41
2023-02-07T01:25:25.140Z,1024.62
2023-02-07T01:25:58.897Z,1024.62
2023-02-07T01:26:29.265Z,1024.62
2023-02-07T01:27:02.176Z,1024.62
2023-02-07T01:27:33.118Z,1024.52
2023-02-07T01:28:06.306Z,1024.52
2023-02-07T01:28:37.202Z,1024.82
2023-02-07T01:29:10.046Z,1024.82
2023-02-07T01:29:41.154Z,1024.82
2023-02-07T01:30:14.381Z,1024.62
2023-02-07T01:30:45.143Z,1024.62
2023-02-07T01:31:18.115Z,1024.72
2023-02-07T01:31:48.957Z,1024.72
2023-02-07T01:32:21.876Z,1024.62
2023-02-07T01:32:52.970Z,1024.62
2023-02-07T01:33:25.971Z,1024.72
2023-02-07T01:33:56.873Z,1024.72
2023-02-07T01:34:29.801Z,1024.52
2023-02-07T01:35:01.330Z,1024.52
2023-02-07T01:35:33.827Z,1024.52
2023-02-07T01:36:04.689Z,1024.52
2023-02-07T01:36:37.791Z,1024.41
2023-02-07T01:37:08.778Z,1024.52
2023-02-07T01:37:41.650Z,1024.52
2023-02-07T01:38:12.685Z,1024.41
2023-02-07T01:38:45.667Z,1024.41
2023-02-07T01:39:16.698Z,1024.62
2023-02-07T01:39:49.552Z,1024.62
2023-02-07T01:40:20.996Z,1024.52
2023-02-07T01:40:53.542Z,1024.52
2023-02-07T01:41:24.638Z,1024.62
2023-02-07T01:41:57.347Z,1024.62
2023-02-07T01:42:28.500Z,1024.62
2023-02-07T01:43:01.546Z,1024.62
2023-02-07T01:43:32.587Z,1024.62
2023-02-07T01:44:05.386Z,1024.62
2023-02-07T01:44:36.374Z,1024.72
2023-02-07T01:45:09.686Z,1024.62
2023-02-07T01:45:40.992Z,1024.62
2023-02-07T01:46:13.210Z,1024.62
2023-02-07T01:46:44.348Z,1024.62
2023-02-07T01:47:17.213Z,1024.62
2023-02-07T01:47:49.604Z,1024.62
2023-02-07T01:48:21.650Z,1024.52
2023-02-07T01:48:52.440Z,1024.52
2023-02-07T01:49:25.356Z,1024.52
2023-02-07T01:49:56.733Z,1024.52
2023-02-07T01:50:29.243Z,1024.62
2023-02-07T01:51:00.172Z,1024.62
2023-02-07T01:51:33.090Z,1024.41
2023-02-07T01:52:04.068Z,1024.41
2023-02-07T01:52:36.954Z,1024.52
2023-02-07T01:53:08.090Z,1024.41
2023-02-07T01:53:41.273Z,1024.41
2023-02-07T01:54:11.975Z,1024.41
2023-02-07T01:54:44.832Z,1024.41
2023-02-07T01:55:15.934Z,1024.52
2023-02-07T01:55:48.877Z,1024.52
2023-02-07T01:56:30.852Z,1024.52
2023-02-07T01:56:52.840Z,1024.52
2023-02-07T01:57:23.917Z,1024.52
2023-02-07T01:57:57.161Z,1024.52
2023-02-07T01:58:27.952Z,1024.52
2023-02-07T01:59:01.078Z,1024.52
2023-02-07T01:59:31.784Z,1024.62
2023-02-07T02:00:05.648Z,1024.62
2023-02-07T02:00:35.648Z,1024.62
2023-02-07T02:01:08.728Z,1024.62
2023-02-07T02:01:39.849Z,1024.62
2023-02-07T02:02:12.721Z,1024.52
2023-02-07T02:02:43.649Z,1024.52
2023-02-07T02:03:16.580Z,1024.41
2023-02-07T02:03:47.728Z,1024.41
2023-02-07T02:04:20.993Z,1024.41
2023-02-07T02:04:51.551Z,1024.41
2023-02-07T02:05:24.455Z,1024.41
2023-02-07T02:05:56.231Z,1024.41
2023-02-07T02:06:28.385Z,1024.41
2023-02-07T02:06:59.507Z,1024.41
2023-02-07T02:07:32.485Z,1024.62
2023-02-07T02:08:03.586Z,1024.62
2023-02-07T02:08:37.015Z,1024.52
2023-02-07T02:09:07.388Z,1024.52
2023-02-07T02:09:40.566Z,1024.52
2023-02-07T02:10:11.643Z,1024.52
2023-02-07T02:10:44.337Z,1024.52
2023-02-07T02:11:15.277Z,1024.52
2023-02-07T02:11:48.199Z,1024.52
2023-02-07T02:12:19.390Z,1024.31
2023-02-07T02:12:52.115Z,1024.31
2023-02-07T02:13:23.163Z,1024.31
2023-02-07T02:13:56.421Z,1024.31
2023-02-07T02:14:28.023Z,1024.31
2023-02-07T02:15:00.971Z,1024.31
2023-02-07T02:15:31.380Z,1024.41
2023-02-07T02:16:04.896Z,1024.41
2023-02-07T02:16:35.254Z,1024.41
2023-02-07T02:17:09.303Z,1024.41
2023-02-07T02:17:39.042Z,1024.52
2023-02-07T02:18:12.460Z,1024.41
2023-02-07T02:18:43.107Z,1024.41
2023-02-07T02:19:15.801Z,1024.41
2023-02-07T02:19:46.959Z,1024.41
2023-02-07T02:20:20.740Z,1024.31
2023-02-07T02:20:51.107Z,1024.31
2023-02-07T02:21:24.118Z,1024.41
2023-02-07T02:21:54.976Z,1024.41
2023-02-07T02:22:27.757Z,1024.41
2023-02-07T02:22:58.887Z,1024.41
2023-02-07T02:23:31.830Z,1024.41
2023-02-07T02:24:02.797Z,1024.41
2023-02-07T02:24:35.877Z,1024.41
2023-02-07T02:25:06.800Z,1024.41
2023-02-07T02:25:39.830Z,1024.41
2023-02-07T02:26:10.871Z,1024.62
2023-02-07T02:26:43.719Z,1024.62
2023-02-07T02:27:14.913Z,1024.62
2023-02-07T02:27:47.983Z,1024.62
2023-02-07T02:28:18.760Z,1024.31
2023-02-07T02:28:51.897Z,1024.31
2023-02-07T02:29:22.787Z,1024.41
2023-02-07T02:29:55.701Z,1024.41
2023-02-07T02:30:26.837Z,1024.62
2023-02-07T02:30:59.684Z,1024.62
2023-02-07T02:31:30.583Z,1024.31
2023-02-07T02:32:03.391Z,1024.31
2023-02-07T02:32:34.412Z,1024.41
2023-02-07T02:33:07.358Z,1024.41
2023-02-07T02:33:38.461Z,1024.41
2023-02-07T02:34:11.360Z,1024.41
2023-02-07T02:34:42.381Z,1024.41
2023-02-07T02:35:15.395Z,1024.62
2023-02-07T02:35:46.204Z,1024.62
2023-02-07T02:36:19.310Z,1024.41
2023-02-07T02:36:50.440Z,1024.41
2023-02-07T02:37:23.309Z,1024.52
2023-02-07T02:37:54.167Z,1024.52
2023-02-07T02:38:27.188Z,1024.31
2023-02-07T02:38:58.179Z,1024.31
2023-02-07T02:39:31.518Z,1024.41
2023-02-07T02:40:02.334Z,1024.41
2023-02-07T02:40:35.333Z,1024.41
2023-02-07T02:41:06.050Z,1024.41
2023-02-07T02:41:40.060Z,1024.41
2023-02-07T02:42:10.169Z,1024.52
2023-02-07T02:42:42.882Z,1024.52
2023-02-07T02:43:14.012Z,1024.52
2023-02-07T02:43:47.373Z,1024.52
2023-02-07T02:44:17.945Z,1024.52
2023-02-07T02:44:50.914Z,1024.52
2023-02-07T02:45:22.042Z,1024.52
2023-02-07T02:45:54.768Z,1024.52
2023-02-07T02:46:25.856Z,1024.62
2023-02-07T02:46:58.724Z,1024.62
2023-02-07T02:47:29.856Z,1024.41
2023-02-07T02:48:02.586Z,1024.41
2023-02-07T02:48:33.704Z,1024.52
2023-02-07T02:49:06.759Z,1024.52
2023-02-07T02:49:37.773Z,1024.52
2023-02-07T02:50:11.881Z,1024.52
2023-02-07T02:50:41.849Z,1024.52
2023-02-07T02:51:15.051Z,1024.52
2023-02-07T02:51:45.998Z,1024.52
2023-02-07T02:52:18.541Z,1024.62
2023-02-07T02:52:51.024Z,1024.62
2023-02-07T02:53:22.866Z,1024.52
2023-02-07T02:53:53.591Z,1024.52
2023-02-07T02:54:26.446Z,1024.52
2023-02-07T02:54:57.434Z,1024.52
2023-02-07T02:55:30.741Z,1024.41
2023-02-07T02:56:01.630Z,1024.41
2023-02-07T02:56:34.545Z,1024.21
2023-02-07T02:57:05.440Z,1024.21
2023-02-07T02:57:38.440Z,1024.31
2023-02-07T02:58:09.555Z,1024.52
2023-02-07T02:58:42.535Z,1024.52
2023-02-07T02:59:13.416Z,1024.52
2023-02-07T02:59:46.295Z,1024.52
2023-02-07T03:00:18.238Z,1024.52
2023-02-07T03:00:50.465Z,1024.52
2023-02-07T03:01:22.065Z,1024.62
2023-02-07T03:01:55.348Z,1024.62
2023-02-07T03:02:25.180Z,1024.31
2023-02-07T03:02:58.444Z,1024.31
2023-02-07T03:03:29.367Z,1024.31
2023-02-07T03:04:02.482Z,1024.31
2023-02-07T03:04:32.990Z,1024.21
2023-02-07T03:05:05.929Z,1024.21
2023-02-07T03:05:37.318Z,1024.31
2023-02-07T03:06:10.080Z,1024.52
2023-02-07T03:06:41.052Z,1024.52
2023-02-07T03:07:13.912Z,1024.31
2023-02-07T03:07:44.954Z,1024.31
2023-02-07T03:08:17.904Z,1024.31
2023-02-07T03:08:48.813Z,1024.31
2023-02-07T03:09:21.745Z,1024.41
2023-02-07T03:09:52.942Z,1024.41
2023-02-07T03:10:25.836Z,1024.31
2023-02-07T03:10:56.751Z,1024.31
2023-02-07T03:11:29.699Z,1024.41
2023-02-07T03:12:00.896Z,1024.41
2023-02-07T03:12:33.790Z,1024.31
2023-02-07T03:13:04.658Z,1024.31
2023-02-07T03:13:37.779Z,1024.21
2023-02-07T03:14:08.925Z,1024.41
2023-02-07T03:14:41.851Z,1024.41
2023-02-07T03:15:12.904Z,1024.41
2023-02-07T03:15:45.732Z,1024.41
2023-02-07T03:16:16.651Z,1024.41
2023-02-07T03:16:49.567Z,1024.41
2023-02-07T03:17:20.573Z,1024.31
2023-02-07T03:17:53.458Z,1024.31
2023-02-07T03:18:24.532Z,1024.31
2023-02-07T03:18:57.548Z,1024.31
2023-02-07T03:19:28.386Z,1024.21
2023-02-07T03:20:01.826Z,1024.21
2023-02-07T03:20:32.486Z,1024.31
2023-02-07T03:21:05.379Z,1024.31
2023-02-07T03:21:36.414Z,1024.21
2023-02-07T03:22:11.264Z,1024.31
2023-02-07T03:22:40.415Z,1024.31
2023-02-07T03:23:13.402Z,1024.21
2023-02-07T03:23:44.222Z,1024.21
2023-02-07T03:24:17.303Z,1024.31
2023-02-07T03:24:48.221Z,1024.31
2023-02-07T03:25:21.420Z,1024.31
2023-02-07T03:25:52.260Z,1024.31
2023-02-07T03:26:25.046Z,1024.41
2023-02-07T03:26:56.355Z,1024.41
2023-02-07T03:27:29.242Z,1024.31
2023-02-07T03:28:00.113Z,1024.31
2023-02-07T03:28:33.104Z,1024.41
2023-02-07T03:29:04.096Z,1024.41
2023-02-07T03:29:36.905Z,1024.41
2023-02-07T03:30:08.337Z,1024.31
2023-02-07T03:30:41.770Z,1024.31
2023-02-07T03:31:12.099Z,1024.31
2023-02-07T03:31:44.950Z,1024.31
2023-02-07T03:32:15.939Z,1024.31
2023-02-07T03:32:48.832Z,1024.31
2023-02-07T03:33:19.916Z,1024.41
2023-02-07T03:33:52.914Z,1024.41
2023-02-07T03:34:23.800Z,1024.21
2023-02-07T03:34:56.786Z,1024.21
2023-02-07T03:35:27.824Z,1024.21
2023-02-07T03:36:00.795Z,1024.21
2023-02-07T03:36:31.702Z,1024.41
2023-02-07T03:37:04.739Z,1024.41
2023-02-07T03:37:35.771Z,1024.52
2023-02-07T03:38:08.488Z,1024.52
2023-02-07T03:38:39.798Z,1024.52
2023-02-07T03:39:12.745Z,1024.41
2023-02-07T03:39:44.665Z,1024.41
2023-02-07T03:40:16.625Z,1024.52
2023-02-07T03:40:47.626Z,1024.52
2023-02-07T03:41:20.863Z,1024.52
2023-02-07T03:41:51.825Z,1024.52
2023-02-07T03:42:24.292Z,1024.52
2023-02-07T03:42:55.560Z,1024.52
2023-02-07T03:43:28.568Z,1024.52
2023-02-07T03:43:59.601Z,1024.52
2023-02-07T03:44:32.686Z,1024.72
2023-02-07T03:45:03.729Z,1024.72
2023-02-07T03:45:37.579Z,1024.31
2023-02-07T03:46:07.326Z,1024.31
2023-02-07T03:46:40.545Z,1024.21
2023-02-07T03:47:11.674Z,1024.41
2023-02-07T03:47:44.601Z,1024.41
2023-02-07T03:48:15.178Z,1024.52
2023-02-07T03:48:48.166Z,1024.52
2023-02-07T03:49:19.265Z,1024.72
2023-02-07T03:49:52.197Z,1024.72
2023-02-07T03:50:23.057Z,1024.62
2023-02-07T03:50:56.007Z,1024.62
2023-02-07T03:51:27.174Z,1024.62
2023-02-07T03:52:00.058Z,1024.62
2023-02-07T03:52:31.075Z,1024.52
2023-02-07T03:53:04.001Z,1024.52
2023-02-07T03:53:35.067Z,1024.52
2023-02-07T03:54:08.089Z,1024.52
2023-02-07T03:54:38.906Z,1024.52
2023-02-07T03:55:11.818Z,1024.31
2023-02-07T03:55:43.023Z,1024.31
2023-02-07T03:56:16.658Z,1024.41
2023-02-07T03:56:46.875Z,1024.41
2023-02-07T03:57:19.771Z,1024.41
2023-02-07T03:57:51.012Z,1024.41
2023-02-07T03:58:23.875Z,1024.21
2023-02-07T03:58:54.700Z,1024.21
2023-02-07T03:59:27.642Z,1024.21
2023-02-07T03:59:58.900Z,1024.21
2023-02-07T04:00:31.994Z,1024.31
2023-02-07T04:01:02.662Z,1024.31
2023-02-07T04:01:35.807Z,1024.31
2023-02-07T04:02:06.804Z,1024.31
2023-02-07T04:02:39.682Z,1024.21
2023-02-07T04:03:10.866Z,1024.21
2023-02-07T04:03:43.527Z,1024.21
2023-02-07T04:04:14.688Z,1024.21
2023-02-07T04:04:47.360Z,1024.21
2023-02-07T04:05:18.490Z,1024.31
2023-02-07T04:05:52.168Z,1024.31
2023-02-07T04:06:22.557Z,1024.11
2023-02-07T04:06:55.376Z,1024.11
2023-02-07T04:07:26.436Z,1024.31
2023-02-07T04:07:59.348Z,1024.31
2023-02-07T04:08:30.645Z,1024.11
2023-02-07T04:09:03.303Z,1024.11
2023-02-07T04:09:34.558Z,1024.11
2023-02-07T04:10:07.336Z,1024.11
2023-02-07T04:10:38.376Z,1024.11
2023-02-07T04:11:11.186Z,1024.21
2023-02-07T04:11:42.350Z,1024.21
2023-02-07T04:12:15.190Z,1024.11
2023-02-07T04:12:46.339Z,1024.11
2023-02-07T04:13:19.063Z,1024.01
2023-02-07T04:13:50.124Z,1024.01
2023-02-07T04:14:23.256Z,1024.01
2023-02-07T04:14:54.242Z,1024.01
2023-02-07T04:15:27.056Z,1023.94
2023-02-07T04:15:58.121Z,1023.94
2023-02-07T04:16:31.072Z,1023.94
2023-02-07T04:17:02.246Z,1023.94
2023-02-07T04:17:34.992Z,1024.01
2023-02-07T04:18:05.979Z,1024.01
2023-02-07T04:18:38.902Z,1024.01
2023-02-07T04:19:10.013Z,1023.94
2023-02-07T04:19:42.852Z,1023.94
2023-02-07T04:20:13.882Z,1023.94
2023-02-07T04:20:47.050Z,1023.94
2023-02-07T04:21:17.765Z,1023.94
2023-02-07T04:21:50.805Z,1023.94
2023-02-07T04:22:21.770Z,1023.74
2023-02-07T04:22:54.742Z,1023.74
2023-02-07T04:23:25.803Z,1023.74
2023-02-07T04:23:58.867Z,1023.74
2023-02-07T04:24:29.741Z,1023.84
2023-02-07T04:25:03.095Z,1023.84
2023-02-07T04:25:33.789Z,1023.74
2023-02-07T04:26:06.618Z,1023.74
2023-02-07T04:26:37.718Z,1023.94
2023-02-07T04:27:10.617Z,1023.84
2023-02-07T04:27:41.556Z,1023.84
2023-02-07T04:28:14.617Z,1023.94
2023-02-07T04:28:45.572Z,1023.94
2023-02-07T04:29:18.519Z,1023.74
2023-02-07T04:29:49.749Z,1023.74
2023-02-07T04:30:22.720Z,1023.84
2023-02-07T04:30:53.561Z,1023.84
2023-02-07T04:31:26.684Z,1023.84
2023-02-07T04:31:58.930Z,1023.84
2023-02-07T04:32:30.421Z,1023.94
2023-02-07T04:33:01.538Z,1023.94
2023-02-07T04:33:34.371Z,1023.94
2023-02-07T04:34:05.300Z,1023.94
2023-02-07T04:34:38.304Z,1023.94
2023-02-07T04:35:09.330Z,1023.84
2023-02-07T04:35:42.473Z,1023.84
2023-02-07T04:36:13.241Z,1023.94
2023-02-07T04:36:46.121Z,1023.94
2023-02-07T04:37:17.214Z,1023.94
2023-02-07T04:37:50.470Z,1023.94
2023-02-07T04:38:21.328Z,1023.84
2023-02-07T04:38:54.142Z,1023.84
2023-02-07T04:39:25.098Z,1023.94
2023-02-07T04:39:58.047Z,1023.94
2023-02-07T04:40:29.022Z,1024.01
2023-02-07T04:41:01.927Z,1024.01
2023-02-07T04:41:33.045Z,1023.94
2023-02-07T04:42:06.954Z,1023.94
2023-02-07T04:42:36.888Z,1023.84
2023-02-07T04:43:09.948Z,1024.01
2023-02-07T04:43:41.096Z,1024.01
2023-02-07T04:44:13.740Z,1023.94
2023-02-07T04:44:44.799Z,1023.94
2023-02-07T04:45:17.838Z,1023.94
2023-02-07T04:45:48.927Z,1023.94
2023-02-07T04:46:21.758Z,1024.01
2023-02-07T04:46:52.793Z,1024.01
2023-02-07T04:47:25.681Z,1024.01
2023-02-07T04:47:56.798Z,1024.01
2023-02-07T04:48:30.920Z,1023.84
2023-02-07T04:49:00.844Z,1023.84
2023-02-07T04:49:34.613Z,1023.94
2023-02-07T04:50:04.817Z,1023.94
2023-02-07T04:50:37.574Z,1024.01
2023-02-07T04:51:08.605Z,1024.11
2023-02-07T04:51:41.673Z,1024.11
2023-02-07T04:52:12.621Z,1024.21
2023-02-07T04:52:45.471Z,1024.21
2023-02-07T04:53:16.464Z,1024.11
2023-02-07T04:53:49.530Z,1024.11
2023-02-07T04:54:20.622Z,1024.21
2023-02-07T04:54:53.344Z,1024.21
2023-02-07T04:55:24.421Z,1024.11
2023-02-07T04:55:58.301Z,1024.11
2023-02-07T04:56:28.415Z,1024.01
2023-02-07T04:57:01.693Z,1024.01
2023-02-07T04:57:32.350Z,1024.21
2023-02-07T04:58:05.414Z,1024.21
2023-02-07T04:58:36.666Z,1024.01
2023-02-07T04:59:09.212Z,1024.01
2023-02-07T04:59:40.246Z,1024.01
2023-02-07T05:00:14.021Z,1024.21
2023-02-07T05:00:44.264Z,1024.21
2023-02-07T05:01:17.200Z,1024.01
2023-02-07T05:01:48.270Z,1024.01
2023-02-07T05:02:21.217Z,1024.11
2023-02-07T05:02:52.243Z,1024.11
2023-02-07T05:03:25.056Z,1024.21
2023-02-07T05:03:56.024Z,1024.21
2023-02-07T05:04:29.027Z,1024.01
2023-02-07T05:05:00.149Z,1024.01
2023-02-07T05:05:32.867Z,1024.21
2023-02-07T05:06:04.121Z,1024.21
2023-02-07T05:06:37.030Z,1024.21
2023-02-07T05:07:07.862Z,1024.11
2023-02-07T05:07:41.108Z,1024.11
2023-02-07T05:08:11.992Z,1024.21
2023-02-07T05:08:44.903Z,1024.21
2023-02-07T05:09:15.720Z,1024.11
2023-02-07T05:09:49.811Z,1024.11
2023-02-07T05:10:19.826Z,1024.52
2023-02-07T05:10:53.770Z,1024.52
2023-02-07T05:11:23.697Z,1024.21
2023-02-07T05:11:56.605Z,1024.21
2023-02-07T05:12:27.729Z,1024.41
2023-02-07T05:13:00.729Z,1024.41
2023-02-07T05:13:31.613Z,1024.41
2023-02-07T05:14:04.687Z,1024.41
2023-02-07T05:14:35.646Z,1024.31
2023-02-07T05:15:08.890Z,1024.31
2023-02-07T05:15:40.075Z,1024.21
2023-02-07T05:16:12.554Z,1024.31
2023-02-07T05:16:43.682Z,1024.31
2023-02-07T05:17:16.690Z,1024.21
2023-02-07T05:17:47.389Z,1024.21
2023-02-07T05:18:20.885Z,1024.41
2023-02-07T05:18:51.618Z,1024.41
2023-02-07T05:19:25.555Z,1024.31
2023-02-07T05:19:55.502Z,1024.31
2023-02-07T05:20:28.259Z,1024.31
2023-02-07T05:20:59.372Z,1024.31
2023-02-07T05:21:32.381Z,1024.41
2023-02-07T05:22:03.302Z,1024.41
2023-02-07T05:22:36.865Z,1024.21
2023-02-07T05:23:07.291Z,1024.21
2023-02-07T05:23:41.468Z,1024.52
2023-02-07T05:24:11.338Z,1024.41
2023-02-07T05:24:44.068Z,1024.41
2023-02-07T05:25:15.215Z,1024.41
2023-02-07T05:25:48.084Z,1024.41
2023-02-07T05:26:19.705Z,1024.41
2023-02-07T05:26:51.988Z,1024.41
2023-02-07T05:27:23.147Z,1024.41
2023-02-07T05:27:56.487Z,1024.41
2023-02-07T05:28:27.004Z,1024.31
2023-02-07T05:29:00.026Z,1024.31
2023-02-07T05:29:31.089Z,1024.41
2023-02-07T05:30:04.283Z,1024.41
2023-02-07T05:30:35.017Z,1024.52
2023-02-07T05:31:08.050Z,1024.52
2023-02-07T05:31:39.216Z,1024.52
2023-02-07T05:32:11.768Z,1024.62
2023-02-07T05:32:42.798Z,1024.62
2023-02-07T05:33:15.885Z,1024.62
2023-02-07T05:33:46.900Z,1024.62
2023-02-07T05:34:19.587Z,1024.62
2023-02-07T05:34:50.849Z,1024.62
2023-02-07T05:35:23.942Z,1024.41
2023-02-07T05:35:54.794Z,1024.41
2023-02-07T05:36:27.748Z,1024.62
2023-02-07T05:36:58.644Z,1024.62
2023-02-07T05:37:31.673Z,1024.72
2023-02-07T05:38:02.726Z,1024.72
2023-02-07T05:38:36.387Z,1024.72
2023-02-07T05:39:06.593Z,1024.72
2023-02-07T05:39:39.733Z,1024.62
2023-02-07T05:40:10.732Z,1024.62
2023-02-07T05:40:43.341Z,1024.62
2023-02-07T05:41:14.500Z,1024.72
2023-02-07T05:41:47.465Z,1024.72
2023-02-07T05:42:18.559Z,1024.62
2023-02-07T05:42:51.330Z,1024.62
2023-02-07T05:43:22.650Z,1024.72
2023-02-07T05:43:55.360Z,1024.72
2023-02-07T05:44:26.470Z,1024.62
2023-02-07T05:44:59.278Z,1024.62
2023-02-07T05:45:30.581Z,1024.82
2023-02-07T05:46:04.287Z,1024.82
2023-02-07T05:46:34.175Z,1024.62
2023-02-07T05:47:07.064Z,1024.62
2023-02-07T05:47:38.293Z,1024.72
2023-02-07T05:48:11.365Z,1024.82
2023-02-07T05:48:42.286Z,1024.82
2023-02-07T05:49:15.398Z,1024.82
2023-02-07T05:49:46.219Z,1024.82
2023-02-07T05:50:19.202Z,1024.72
2023-02-07T05:50:50.330Z,1024.72
2023-02-07T05:51:23.400Z,1024.72
2023-02-07T05:51:54.057Z,1024.72
2023-02-07T05:52:26.978Z,1024.52
2023-02-07T05:52:58.078Z,1024.52
2023-02-07T05:53:31.047Z,1024.72
2023-02-07T05:54:01.953Z,1024.72
2023-02-07T05:54:36.378Z,1024.62
2023-02-07T05:55:05.802Z,1024.62
2023-02-07T05:55:39.192Z,1024.72
2023-02-07T05:56:09.992Z,1024.92
2023-02-07T05:56:42.768Z,1024.92
2023-02-07T05:57:13.813Z,1024.82
2023-02-07T05:57:46.816Z,1024.82
2023-02-07T05:58:17.788Z,1024.92
2023-02-07T05:58:50.754Z,1024.92
2023-02-07T05:59:21.684Z,1024.92
2023-02-07T05:59:54.843Z,1024.92
2023-02-07T06:00:26.220Z,1024.92
2023-02-07T06:00:59.898Z,1024.92
2023-02-07T06:01:29.879Z,1024.82
2023-02-07T06:02:02.588Z,1024.82
2023-02-07T06:02:33.785Z,1024.72
2023-02-07T06:03:06.479Z,1024.72
2023-02-07T06:03:37.642Z,1024.82
2023-02-07T06:04:10.882Z,1024.92
2023-02-07T06:04:41.656Z,1024.92
2023-02-07T06:05:15.542Z,1024.92
2023-02-07T06:05:45.470Z,1024.92
2023-02-07T06:06:19.854Z,1024.92
2023-02-07T06:06:49.494Z,1024.92
2023-02-07T06:07:22.254Z,1025.02
2023-02-07T06:07:53.431Z,1025.02
2023-02-07T06:08:26.437Z,1024.92
2023-02-07T06:08:57.474Z,1024.92
2023-02-07T06:09:30.209Z,1024.92
2023-02-07T06:10:01.671Z,1024.92
2023-02-07T06:10:34.202Z,1024.82
2023-02-07T06:11:05.277Z,1024.82
2023-02-07T06:11:38.302Z,1024.92
2023-02-07T06:12:09.800Z,1024.92
2023-02-07T06:12:42.675Z,1024.92
2023-02-07T06:13:13.259Z,1024.92
2023-02-07T06:13:46.064Z,1024.92
2023-02-07T06:14:17.249Z,1024.92
2023-02-07T06:14:50.348Z,1024.92
2023-02-07T06:15:21.323Z,1024.92
2023-02-07T06:15:54.075Z,1024.92
2023-02-07T06:16:25.008Z,1024.92
2023-02-07T06:16:57.963Z,1024.92
2023-02-07T06:17:28.866Z,1025.02
2023-02-07T06:18:02.154Z,1025.02
2023-02-07T06:18:32.976Z,1024.92
2023-02-07T06:19:06.007Z,1024.92
2023-02-07T06:19:36.844Z,1025.02
2023-02-07T06:20:09.904Z,1025.13
2023-02-07T06:20:41.047Z,1025.13
2023-02-07T06:21:14.005Z,1024.82
2023-02-07T06:21:46.387Z,1024.82
2023-02-07T06:22:18.047Z,1024.82
2023-02-07T06:22:48.778Z,1024.82
2023-02-07T06:23:23.340Z,1024.92
2023-02-07T06:23:52.818Z,1024.92
2023-02-07T06:24:25.645Z,1025.02
2023-02-07T06:24:56.836Z,1025.02
2023-02-07T06:25:30.040Z,1024.92
2023-02-07T06:26:00.606Z,1024.92
2023-02-07T06:26:33.644Z,1024.92